Time;durP1;ratioP1;P1;durP2;ratioP2;P2;SDS_P1;SDS_P2;PMS_P1;PMS_P2;Temp;Humidity;BMP_temperature;BMP_pressure;BME280_temperature;BME280_humidity;BME280_pressure;Samples;Min_cycle;Max_cycle;Signal;HPM_P1;HPM_P2
2022/07/29 00:01:23;;;;;;;5.40;1.70;;;16.20;99.90;;;;;;5036275;28;20081;-63
2022/07/29 00:03:48;;;;;;;4.32;1.70;;;16.10;99.90;;;;;;5054355;28;20084;-63
2022/07/29 00:06:15;;;;;;;4.22;1.73;;;16.10;99.90;;;;;;5053100;28;20049;-63
2022/07/29 00:08:40;;;;;;;4.57;1.65;;;16.10;99.90;;;;;;5053364;28;20743;-63
2022/07/29 00:11:06;;;;;;;3.60;1.63;;;16.10;99.90;;;;;;5054291;28;20051;-63
2022/07/29 00:13:32;;;;;;;2.25;1.50;;;16.00;99.90;;;;;;5054392;28;20425;-63
2022/07/29 00:15:59;;;;;;;4.53;1.55;;;16.00;99.90;;;;;;5036459;28;20130;-63
2022/07/29 00:18:25;;;;;;;3.67;1.40;;;15.90;99.90;;;;;;5052608;28;20048;-63
2022/07/29 00:20:52;;;;;;;3.80;1.40;;;15.90;99.90;;;;;;5052871;28;20041;-62
2022/07/29 00:23:17;;;;;;;4.80;1.92;;;16.00;99.90;;;;;;5036439;28;20213;-63
2022/07/29 00:25:43;;;;;;;3.92;1.60;;;16.00;99.90;;;;;;5036514;28;20048;-63
2022/07/29 00:28:10;;;;;;;4.20;1.70;;;15.90;99.90;;;;;;5053220;28;20040;-63
2022/07/29 00:30:36;;;;;;;4.38;1.60;;;15.90;99.90;;;;;;5052158;28;20039;-64
2022/07/29 00:33:02;;;;;;;5.03;1.67;;;15.90;99.90;;;;;;5052995;28;20045;-63
2022/07/29 00:35:46;;;;;;;2.65;1.40;;;15.80;99.90;;;;;;5036090;28;20465;-63
2022/07/29 00:38:17;;;;;;;1.52;1.42;;;15.80;99.90;;;;;;5052851;28;20037;-63
2022/07/29 00:40:44;;;;;;;2.53;1.50;;;15.80;99.90;;;;;;5035850;28;20059;-63
2022/07/29 00:43:12;;;;;;;5.22;1.85;;;15.80;99.90;;;;;;5019669;28;20098;-62
2022/07/29 00:45:40;;;;;;;3.15;1.77;;;15.80;99.90;;;;;;5017236;28;20115;-63
2022/07/29 00:48:08;;;;;;;4.55;1.70;;;15.70;99.90;;;;;;5052642;28;20037;-63
2022/07/29 00:50:37;;;;;;;2.97;1.48;;;15.80;99.90;;;;;;5051343;28;20199;-63
2022/07/29 00:53:04;;;;;;;4.32;1.60;;;15.80;99.90;;;;;;5039717;28;20102;-63
2022/07/29 00:55:32;;;;;;;4.00;1.65;;;15.80;99.90;;;;;;5053189;28;20381;-62
2022/07/29 00:57:59;;;;;;;2.75;1.40;;;15.80;99.90;;;;;;5035078;28;20033;-63
2022/07/29 01:00:26;;;;;;;3.45;2.05;;;15.80;99.90;;;;;;5051426;28;20059;-63
2022/07/29 01:02:55;;;;;;;2.97;1.60;;;15.80;99.90;;;;;;5052606;28;20100;-62
2022/07/29 01:05:24;;;;;;;5.63;1.85;;;15.80;99.90;;;;;;5052765;28;20490;-63
2022/07/29 01:07:52;;;;;;;4.45;1.90;;;15.80;99.90;;;;;;5035930;28;20300;-63
2022/07/29 01:10:20;;;;;;;2.58;1.70;;;15.70;99.90;;;;;;5051477;28;20512;-63
2022/07/29 01:12:51;;;;;;;4.47;1.80;;;15.70;99.90;;;;;;5052148;28;20072;-63
2022/07/29 01:15:18;;;;;;;3.97;1.85;;;15.70;99.90;;;;;;5052290;28;20041;-62
2022/07/29 01:18:10;;;;;;;3.20;1.85;;;15.70;99.90;;;;;;5052595;28;20041;-62
2022/07/29 01:21:06;;;;;;;4.57;1.80;;;15.60;99.90;;;;;;5047227;28;20359;-63
2022/07/29 01:23:56;;;;;;;4.88;2.03;;;15.70;99.90;;;;;;5046967;28;20080;-62
2022/07/29 01:26:50;;;;;;;2.97;1.92;;;15.60;99.90;;;;;;5035812;28;20348;-63
2022/07/29 01:29:57;;;;;;;3.13;1.70;;;15.60;99.90;;;;;;5050772;28;20115;-62
2022/07/29 01:32:27;;;;;;;3.33;1.80;;;15.70;99.90;;;;;;4939670;28;20113;-62
2022/07/29 01:35:01;;;;;;;4.13;1.80;;;15.70;99.90;;;;;;4956456;28;20065;-62
2022/07/29 01:37:39;;;;;;;;;;;15.70;99.90;;;;;;4988289;28;20037;-62
2022/07/29 01:40:09;;;;;;;2.55;1.90;;;15.70;99.90;;;;;;5042957;28;20565;-63
2022/07/29 01:42:56;;;;;;;6.63;1.92;;;15.60;99.90;;;;;;5051336;28;20044;-63
2022/07/29 01:45:34;;;;;;;5.68;2.03;;;15.60;99.90;;;;;;5051851;28;20500;-63
2022/07/29 01:48:09;;;;;;;4.20;2.03;;;15.60;99.90;;;;;;5051837;28;20032;-64
2022/07/29 01:50:37;;;;;;;2.35;1.80;;;15.60;99.90;;;;;;5034794;28;20071;-63
2022/07/29 01:53:09;;;;;;;3.60;2.20;;;15.60;99.90;;;;;;5037702;28;20079;-63
2022/07/29 01:55:39;;;;;;;3.53;2.03;;;15.60;99.90;;;;;;5034634;28;20481;-63
2022/07/29 01:58:06;;;;;;;4.32;2.05;;;15.60;99.90;;;;;;5051110;28;20047;-63
2022/07/29 02:00:35;;;;;;;4.18;2.15;;;15.60;99.90;;;;;;5050121;28;20061;-63
2022/07/29 02:03:07;;;;;;;6.22;2.30;;;15.60;99.90;;;;;;5051121;28;20044;-63
2022/07/29 02:05:34;;;;;;;4.95;2.25;;;15.60;99.90;;;;;;5034488;28;20140;-63
2022/07/29 02:08:01;;;;;;;3.92;2.10;;;15.50;99.90;;;;;;5051088;28;20032;-63
2022/07/29 02:10:30;;;;;;;5.75;2.60;;;15.50;99.90;;;;;;5024178;28;20033;-62
2022/07/29 02:13:17;;;;;;;6.35;2.28;;;15.60;99.90;;;;;;5034574;28;20047;-62
2022/07/29 02:15:44;;;;;;;4.40;2.05;;;15.60;99.90;;;;;;5050077;28;20049;-63
2022/07/29 02:18:16;;;;;;;4.45;1.98;;;15.50;99.90;;;;;;5050822;28;20051;-62
2022/07/29 02:20:48;;;;;;;4.40;2.10;;;15.60;99.90;;;;;;5034602;28;20123;-63
2022/07/29 02:23:19;;;;;;;4.00;1.90;;;15.50;99.90;;;;;;5050795;28;20052;-63
2022/07/29 02:25:52;;;;;;;5.47;2.10;;;15.50;99.90;;;;;;5046341;28;20108;-65
2022/07/29 02:28:20;;;;;;;4.72;2.20;;;15.50;99.90;;;;;;5025672;28;20060;-62
2022/07/29 02:30:51;;;;;;;4.13;2.20;;;15.50;99.90;;;;;;5049639;28;20401;-63
2022/07/29 02:33:19;;;;;;;6.78;2.20;;;15.50;99.90;;;;;;5050678;28;20500;-63
2022/07/29 02:35:48;;;;;;;5.05;2.13;;;15.40;99.90;;;;;;5050532;28;20036;-63
2022/07/29 02:41:11;;;;;;;7.00;2.25;;;15.40;99.90;;;;;;5050180;28;20033;-63
2022/07/29 02:43:38;;;;;;;3.72;1.85;;;15.40;99.90;;;;;;5051712;28;20465;-63
2022/07/29 02:46:12;;;;;;;3.85;2.03;;;15.40;99.90;;;;;;5045340;28;20033;-62
2022/07/29 02:48:43;;;;;;;4.70;2.08;;;15.40;99.90;;;;;;5030232;28;20430;-63
2022/07/29 02:51:17;;;;;;;4.68;1.88;;;15.40;99.90;;;;;;5049945;28;20033;-63
2022/07/29 02:53:49;;;;;;;4.65;2.00;;;15.40;99.90;;;;;;5014294;28;20096;-62
2022/07/29 02:56:22;;;;;;;4.80;2.10;;;15.40;99.90;;;;;;5050688;28;20343;-63
2022/07/29 02:58:56;;;;;;;3.75;2.00;;;15.40;99.90;;;;;;5033328;28;20033;-63
2022/07/29 03:01:23;;;;;;;6.05;2.10;;;15.30;99.90;;;;;;5050321;28;20077;-63
2022/07/29 03:03:52;;;;;;;3.53;2.05;;;15.30;99.90;;;;;;5050532;28;20057;-63
2022/07/29 03:06:20;;;;;;;3.50;1.73;;;15.40;99.90;;;;;;5017666;28;20102;-63
2022/07/29 03:08:50;;;;;;;6.03;2.00;;;15.30;99.90;;;;;;5049668;28;20037;-63
2022/07/29 03:11:19;;;;;;;4.10;1.80;;;15.30;99.90;;;;;;5045796;28;20041;-63
2022/07/29 03:13:45;;;;;;;3.78;2.25;;;15.20;99.90;;;;;;5050187;28;20045;-63
2022/07/29 03:16:12;;;;;;;3.80;1.80;;;15.30;99.90;;;;;;5050590;28;20059;-63
2022/07/29 03:18:40;;;;;;;4.93;2.00;;;15.30;99.90;;;;;;5033028;28;20349;-63
2022/07/29 03:21:05;;;;;;;4.47;1.80;;;15.30;99.90;;;;;;5051246;28;20615;-63
2022/07/29 03:23:31;;;;;;;4.25;1.90;;;15.30;99.90;;;;;;5053814;28;20052;-63
2022/07/29 03:25:58;;;;;;;4.25;2.08;;;15.20;99.90;;;;;;5053840;28;20045;-63
2022/07/29 03:28:27;;;;;;;3.80;1.92;;;15.20;99.90;;;;;;5053602;28;20091;-63
2022/07/29 03:30:53;;;;;;;4.10;1.80;;;15.20;99.90;;;;;;5053636;28;20052;-62
2022/07/29 03:33:18;;;;;;;4.45;1.83;;;15.30;99.90;;;;;;5054275;28;20045;-63
2022/07/29 03:35:44;;;;;;;4.32;1.80;;;15.20;99.90;;;;;;5053745;28;20532;-63
2022/07/29 03:38:11;;;;;;;5.05;2.20;;;15.20;99.90;;;;;;5036661;28;20037;-63
2022/07/29 03:40:52;;;;;;;4.13;1.67;;;15.20;99.90;;;;;;5053622;28;20566;-62
2022/07/29 03:43:22;;;;;;;3.55;1.90;;;15.20;99.90;;;;;;5053966;28;20043;-64
2022/07/29 03:45:53;;;;;;;4.32;1.92;;;15.10;99.90;;;;;;5036962;28;20183;-63
2022/07/29 03:48:23;;;;;;;6.32;2.05;;;15.10;99.90;;;;;;5053441;28;20055;-63
2022/07/29 03:50:51;;;;;;;2.45;1.70;;;15.10;99.90;;;;;;5053201;28;20037;-62
2022/07/29 03:53:19;;;;;;;3.08;1.75;;;15.10;99.90;;;;;;5053015;28;20083;-62
2022/07/29 03:55:52;;;;;;;3.50;1.83;;;15.10;99.90;;;;;;5054334;28;20080;-63
2022/07/29 03:58:19;;;;;;;3.97;1.98;;;15.10;99.90;;;;;;5035832;28;20141;-62
2022/07/29 04:00:45;;;;;;;4.97;1.90;;;15.10;99.90;;;;;;5056670;28;20126;-62
2022/07/29 04:03:12;;;;;;;6.53;2.35;;;15.00;99.90;;;;;;5039814;28;20489;-63
2022/07/29 04:05:39;;;;;;;3.83;1.80;;;15.00;99.90;;;;;;5056656;28;20048;-63
2022/07/29 04:08:06;;;;;;;3.78;2.10;;;15.00;99.90;;;;;;5074244;28;20127;-62
2022/07/29 04:10:32;;;;;;;5.68;2.00;;;15.00;99.90;;;;;;5046521;28;20048;-62
2022/07/29 04:12:59;;;;;;;6.22;2.15;;;15.00;99.90;;;;;;5056965;28;20033;-61
2022/07/29 04:15:25;;;;;;;6.30;1.90;;;15.00;99.90;;;;;;5067956;28;20059;-62
2022/07/29 04:17:51;;;;;;;5.07;2.00;;;14.90;99.90;;;;;;5047008;28;20041;-62
2022/07/29 04:20:18;;;;;;;4.10;1.65;;;15.00;99.90;;;;;;5055947;28;20047;-62
2022/07/29 04:22:46;;;;;;;3.72;1.90;;;14.90;99.90;;;;;;5039912;28;20056;-62
2022/07/29 04:25:14;;;;;;;3.85;2.00;;;14.90;99.90;;;;;;5040927;28;20050;-62
2022/07/29 04:27:59;;;;;;;4.18;1.85;;;14.90;99.90;;;;;;5056335;28;20044;-61
2022/07/29 04:30:26;;;;;;;3.38;1.90;;;14.90;99.90;;;;;;5073377;28;20393;-62
2022/07/29 04:32:52;;;;;;;3.88;1.98;;;14.90;99.90;;;;;;5055004;28;20036;-61
2022/07/29 04:35:18;;;;;;;6.47;2.20;;;14.80;99.90;;;;;;5073683;28;20047;-62
2022/07/29 04:37:44;;;;;;;4.50;2.28;;;14.80;99.90;;;;;;5039768;28;20634;-62
2022/07/29 04:40:11;;;;;;;3.25;1.70;;;14.80;99.90;;;;;;5055774;28;20047;-63
2022/07/29 04:42:37;;;;;;;4.65;2.25;;;14.90;99.90;;;;;;5039792;28;20095;-62
2022/07/29 04:45:04;;;;;;;4.00;2.10;;;14.80;99.90;;;;;;5056890;28;20048;-62
2022/07/29 04:47:29;;;;;;;4.15;2.10;;;14.80;99.90;;;;;;5055976;28;20128;-62
2022/07/29 04:49:56;;;;;;;6.03;2.20;;;14.90;99.90;;;;;;5070719;28;20136;-62
2022/07/29 04:52:22;;;;;;;4.32;2.00;;;14.80;99.90;;;;;;5055169;28;20040;-62
2022/07/29 04:54:48;;;;;;;3.90;1.80;;;14.80;99.90;;;;;;5042530;28;20050;-62
2022/07/29 04:57:14;;;;;;;3.30;1.67;;;14.80;99.90;;;;;;5034803;28;20044;-63
2022/07/29 04:59:41;;;;;;;5.35;2.08;;;14.90;99.90;;;;;;5053782;28;20028;-62
2022/07/29 05:02:07;;;;;;;6.13;1.80;;;14.90;99.90;;;;;;5041096;28;20072;-62
2022/07/29 05:04:32;;;;;;;5.35;1.90;;;15.00;99.90;;;;;;5021064;28;20056;-63
2022/07/29 05:06:58;;;;;;;5.65;1.98;;;15.00;99.90;;;;;;5040361;28;20048;-62
2022/07/29 05:09:24;;;;;;;5.38;2.20;;;15.00;99.90;;;;;;5019921;28;20041;-63
2022/07/29 05:11:49;;;;;;;4.85;2.33;;;15.00;99.90;;;;;;5052891;28;20071;-64
2022/07/29 05:14:18;;;;;;;8.32;2.17;;;15.10;99.90;;;;;;5038405;28;20040;-62
2022/07/29 05:16:43;;;;;;;7.90;2.35;;;15.20;99.90;;;;;;5055241;28;20047;-63
2022/07/29 05:19:10;;;;;;;6.60;2.58;;;15.10;99.90;;;;;;5038097;28;20369;-63
2022/07/29 05:21:36;;;;;;;6.00;2.30;;;15.20;99.90;;;;;;5072270;28;20040;-63
2022/07/29 05:24:02;;;;;;;4.70;2.00;;;15.30;99.90;;;;;;5054948;28;20365;-62
2022/07/29 05:26:28;;;;;;;5.80;1.90;;;15.40;99.90;;;;;;5038327;28;20123;-61
2022/07/29 05:28:54;;;;;;;5.25;2.10;;;15.50;99.90;;;;;;5054518;28;20120;-62
2022/07/29 05:31:20;;;;;;;3.65;2.05;;;15.70;99.90;;;;;;5038573;28;20087;-63
2022/07/29 05:33:50;;;;;;;4.28;2.10;;;15.90;99.90;;;;;;5037115;28;20044;-63
2022/07/29 05:36:15;;;;;;;8.38;2.45;;;16.10;99.90;;;;;;5054398;28;20040;-63
2022/07/29 05:38:41;;;;;;;3.97;2.10;;;16.20;99.90;;;;;;5024831;28;20476;-62
2022/07/29 05:41:09;;;;;;;4.00;1.70;;;16.40;99.90;;;;;;5049225;28;20115;-63
2022/07/29 05:43:36;;;;;;;4.20;1.85;;;16.70;99.90;;;;;;5046452;28;20044;-63
2022/07/29 05:46:02;;;;;;;4.03;1.92;;;16.90;99.90;;;;;;5036353;28;20044;-61
2022/07/29 05:48:28;;;;;;;6.78;2.38;;;17.20;99.90;;;;;;5054084;28;20391;-62
2022/07/29 05:50:54;;;;;;;3.88;1.90;;;17.20;99.90;;;;;;5038236;28;20036;-63
2022/07/29 05:53:21;;;;;;;4.90;2.50;;;17.20;99.90;;;;;;5054991;28;20703;-63
2022/07/29 05:55:48;;;;;;;4.38;2.17;;;17.40;99.90;;;;;;5054270;28;20036;-62
2022/07/29 05:58:14;;;;;;;5.20;2.13;;;17.60;99.90;;;;;;5033502;28;20345;-64
2022/07/29 06:00:41;;;;;;;4.75;2.00;;;17.90;99.90;;;;;;5036830;28;20053;-64
2022/07/29 06:03:06;;;;;;;4.00;2.08;;;18.00;99.90;;;;;;5048198;28;20036;-64
2022/07/29 06:05:32;;;;;;;5.07;1.83;;;17.70;99.90;;;;;;5034591;28;20055;-63
2022/07/29 06:07:58;;;;;;;6.78;2.00;;;17.60;99.90;;;;;;5035226;28;20047;-63
2022/07/29 06:10:24;;;;;;;5.28;2.40;;;17.30;99.90;;;;;;5058284;28;20202;-63
2022/07/29 06:12:50;;;;;;;5.90;2.00;;;17.10;99.90;;;;;;5062762;28;20086;-63
2022/07/29 06:15:15;;;;;;;3.58;2.05;;;16.90;99.90;;;;;;5053958;28;20044;-62
2022/07/29 06:17:41;;;;;;;3.50;2.00;;;16.80;99.90;;;;;;5035697;28;20194;-63
2022/07/29 06:20:07;;;;;;;3.35;1.83;;;16.70;99.90;;;;;;5047680;28;20036;-63
2022/07/29 06:22:33;;;;;;;4.55;2.08;;;16.60;99.90;;;;;;5045295;28;20044;-63
2022/07/29 06:24:58;;;;;;;5.55;2.00;;;16.50;99.90;;;;;;5053891;28;20048;-63
2022/07/29 06:27:24;;;;;;;4.07;2.20;;;16.40;99.90;;;;;;5070705;28;20480;-63
2022/07/29 06:29:49;;;;;;;5.50;1.83;;;16.30;99.90;;;;;;5053616;28;20129;-62
2022/07/29 06:32:15;;;;;;;5.07;2.15;;;16.30;99.90;;;;;;5053637;28;20472;-63
2022/07/29 06:34:41;;;;;;;3.83;2.08;;;16.20;99.90;;;;;;5053471;28;20369;-62
2022/07/29 06:37:07;;;;;;;4.72;2.00;;;16.20;99.90;;;;;;5054225;28;20040;-63
2022/07/29 06:39:37;;;;;;;5.47;1.88;;;16.30;99.90;;;;;;5053406;28;20040;-62
2022/07/29 06:42:07;;;;;;;4.75;2.05;;;16.30;99.90;;;;;;5065023;28;20044;-62
2022/07/29 06:44:35;;;;;;;5.63;1.90;;;16.30;99.90;;;;;;5050869;28;20040;-62
2022/07/29 06:47:01;;;;;;;2.97;1.95;;;16.20;99.90;;;;;;5053966;28;20350;-62
2022/07/29 06:49:27;;;;;;;4.65;2.40;;;16.20;99.90;;;;;;5053134;28;20453;-63
2022/07/29 06:51:54;;;;;;;3.47;2.20;;;16.20;99.90;;;;;;5036852;28;20056;-62
2022/07/29 06:54:20;;;;;;;5.47;1.85;;;16.20;99.90;;;;;;5070523;28;20442;-62
2022/07/29 06:56:45;;;;;;;5.03;2.10;;;16.20;99.90;;;;;;5036870;28;20131;-62
2022/07/29 06:59:12;;;;;;;3.55;1.80;;;16.20;99.90;;;;;;5036283;28;20509;-62
2022/07/29 07:01:41;;;;;;;4.68;2.53;;;16.30;99.90;;;;;;5033572;28;20057;-62
2022/07/29 07:04:09;;;;;;;5.72;2.22;;;16.30;99.90;;;;;;5049967;28;20132;-62
2022/07/29 07:06:35;;;;;;;5.03;2.78;;;16.20;99.90;;;;;;5050246;28;20099;-62
2022/07/29 07:09:01;;;;;;;6.32;2.35;;;16.10;99.90;;;;;;5050162;28;20465;-62
2022/07/29 07:11:27;;;;;;;4.63;2.20;;;16.10;99.90;;;;;;5032977;28;20439;-62
2022/07/29 07:13:53;;;;;;;6.80;2.45;;;16.00;99.90;;;;;;5032578;28;20084;-63
2022/07/29 07:16:20;;;;;;;5.32;2.42;;;16.00;99.90;;;;;;5036471;28;20452;-63
2022/07/29 07:18:46;;;;;;;7.32;2.55;;;16.10;99.90;;;;;;5040201;28;20400;-64
2022/07/29 07:21:12;;;;;;;5.03;2.05;;;16.10;99.90;;;;;;5049244;28;20040;-63
2022/07/29 07:23:41;;;;;;;7.85;2.50;;;16.10;99.90;;;;;;5050603;28;20107;-63
2022/07/29 07:26:06;;;;;;;5.03;2.60;;;16.00;99.90;;;;;;5046286;28;20041;-64
2022/07/29 07:28:32;;;;;;;4.75;2.45;;;16.10;99.90;;;;;;5049451;28;20422;-63
2022/07/29 07:30:59;;;;;;;5.30;2.30;;;16.10;99.90;;;;;;5032982;28;20128;-63
2022/07/29 07:33:25;;;;;;;9.63;2.50;;;16.20;99.90;;;;;;5049948;28;20052;-63
2022/07/29 07:35:50;;;;;;;7.05;2.92;;;16.10;99.90;;;;;;5050176;28;20373;-63
2022/07/29 07:38:31;;;;;;;4.25;2.67;;;16.00;99.90;;;;;;5048595;28;20037;-63
2022/07/29 07:41:02;;;;;;;7.25;2.90;;;16.10;99.90;;;;;;5049268;28;20519;-64
2022/07/29 07:43:28;;;;;;;5.32;2.50;;;16.00;99.90;;;;;;5033152;28;20041;-63
2022/07/29 07:45:53;;;;;;;4.50;2.80;;;16.10;99.90;;;;;;5050252;28;20110;-63
2022/07/29 07:48:19;;;;;;;6.05;2.85;;;16.20;99.90;;;;;;5049681;28;20449;-63
2022/07/29 07:50:45;;;;;;;6.32;2.65;;;16.20;99.90;;;;;;5049571;28;20041;-63
2022/07/29 07:53:11;;;;;;;5.38;3.13;;;16.20;99.90;;;;;;5035926;28;20056;-62
2022/07/29 07:55:42;;;;;;;5.57;2.67;;;16.20;99.90;;;;;;5030362;28;20301;-63
2022/07/29 07:58:10;;;;;;;6.35;2.85;;;16.30;99.90;;;;;;5029883;28;20037;-63
2022/07/29 08:00:36;;;;;;;6.63;2.60;;;16.40;99.90;;;;;;5049489;28;20089;-63
2022/07/29 08:03:02;;;;;;;5.85;2.90;;;16.50;99.90;;;;;;5032626;28;20479;-63
2022/07/29 08:05:28;;;;;;;6.15;2.40;;;16.70;99.90;;;;;;5048755;28;20128;-62
2022/07/29 08:07:53;;;;;;;5.40;2.40;;;16.80;99.90;;;;;;5051687;28;20132;-62
2022/07/29 08:13:10;;;;;;;6.88;2.58;;;17.00;99.90;;;;;;5053308;28;20041;-62
2022/07/29 08:15:39;;;;;;;4.32;2.40;;;17.10;99.90;;;;;;5054321;28;20530;-62
2022/07/29 08:18:04;;;;;;;9.20;2.55;;;17.10;99.90;;;;;;5053005;28;20041;-62
2022/07/29 08:20:32;;;;;;;4.32;2.50;;;17.30;99.90;;;;;;5053301;28;20451;-62
2022/07/29 08:22:59;;;;;;;8.55;2.60;;;17.50;99.90;;;;;;5036224;28;20045;-63
2022/07/29 08:25:24;;;;;;;3.65;2.22;;;17.60;99.90;;;;;;5049476;28;20124;-62
2022/07/29 08:27:50;;;;;;;6.35;2.63;;;17.60;99.90;;;;;;5053844;28;20442;-64
2022/07/29 08:30:16;;;;;;;6.85;2.28;;;17.60;99.90;;;;;;5051309;28;20052;-62
2022/07/29 08:32:41;;;;;;;5.55;2.40;;;17.70;99.90;;;;;;5053006;28;20116;-63
2022/07/29 08:35:07;;;;;;;6.20;2.60;;;17.70;99.90;;;;;;5052728;28;20525;-65
2022/07/29 08:37:33;;;;;;;5.50;2.35;;;17.70;99.90;;;;;;5051979;28;20419;-63
2022/07/29 08:39:58;;;;;;;5.13;2.70;;;17.70;99.90;;;;;;5053427;28;20072;-62
2022/07/29 08:42:24;;;;;;;7.88;2.47;;;17.80;99.90;;;;;;5052769;28;20029;-63
2022/07/29 08:44:50;;;;;;;6.28;2.50;;;17.80;99.90;;;;;;5016447;28;20045;-63
2022/07/29 08:47:17;;;;;;;4.95;2.53;;;17.80;99.90;;;;;;5052500;28;20033;-63
2022/07/29 08:49:44;;;;;;;6.07;2.40;;;17.90;99.90;;;;;;5051845;28;20127;-63
2022/07/29 08:52:11;;;;;;;3.63;2.20;;;18.00;99.90;;;;;;5049732;28;20469;-63
2022/07/29 08:54:39;;;;;;;7.40;2.70;;;18.00;99.90;;;;;;5053669;28;20741;-63
2022/07/29 08:57:05;;;;;;;6.15;2.45;;;18.10;99.90;;;;;;5035693;28;20060;-64
2022/07/29 08:59:34;;;;;;;5.50;2.88;;;18.20;99.90;;;;;;5051647;28;20041;-64
2022/07/29 09:02:00;;;;;;;7.65;3.45;;;18.20;99.90;;;;;;5035048;28;20119;-64
2022/07/29 09:04:32;;;;;;;5.03;2.45;;;18.30;99.90;;;;;;5051655;28;20373;-63
2022/07/29 09:07:02;;;;;;;7.80;2.70;;;18.40;99.90;;;;;;5035902;28;20045;-63
2022/07/29 09:09:28;;;;;;;7.57;3.00;;;18.40;99.90;;;;;;5051137;28;20041;-63
2022/07/29 09:11:54;;;;;;;9.55;2.95;;;18.50;99.90;;;;;;5051598;28;20260;-64
2022/07/29 09:14:21;;;;;;;7.97;2.83;;;18.50;99.90;;;;;;5035111;28;20045;-64
2022/07/29 09:16:53;;;;;;;4.72;2.30;;;18.60;99.90;;;;;;5051773;28;20147;-64
2022/07/29 09:19:24;;;;;;;8.27;2.72;;;18.70;99.90;;;;;;5050951;28;20032;-63
2022/07/29 09:22:00;;;;;;;7.35;2.58;;;18.90;99.90;;;;;;5051729;28;20124;-64
2022/07/29 09:24:40;;;;;;;5.25;2.55;;;19.00;99.90;;;;;;5052228;28;20073;-64
2022/07/29 09:27:17;;;;;;;5.68;2.70;;;19.20;99.90;;;;;;5045961;28;20044;-63
2022/07/29 09:41:14;;;;;;;5.22;2.42;;;19.90;99.90;;;;;;5052505;28;20067;-63
2022/07/29 09:43:42;;;;;;;6.53;2.83;;;19.80;99.90;;;;;;5051649;28;20454;-64
2022/07/29 09:46:14;;;;;;;5.88;2.50;;;19.90;99.90;;;;;;5051599;28;20037;-64
2022/07/29 09:48:41;;;;;;;4.75;2.40;;;20.10;99.90;;;;;;5050177;28;20091;-64
2022/07/29 09:51:18;;;;;;;5.43;2.53;;;20.20;99.90;;;;;;5034367;28;20033;-64
2022/07/29 09:53:44;;;;;;;4.88;2.67;;;20.30;99.90;;;;;;5050790;28;20277;-64
2022/07/29 09:56:10;;;;;;;6.90;2.65;;;20.30;99.90;;;;;;5051592;28;20040;-64
2022/07/29 09:58:36;;;;;;;5.22;2.50;;;20.30;99.90;;;;;;5050635;28;20051;-64
2022/07/29 10:01:02;;;;;;;5.78;2.83;;;20.30;99.90;;;;;;5050612;28;20044;-64
2022/07/29 10:03:28;;;;;;;6.50;2.70;;;20.30;99.90;;;;;;5050936;28;20041;-64
2022/07/29 10:06:04;;;;;;;6.75;3.00;;;20.30;99.90;;;;;;5051037;28;20052;-64
2022/07/29 10:08:31;;;;;;;6.85;2.92;;;20.40;99.90;;;;;;5033603;28;20048;-64
2022/07/29 10:16:10;;;;;;;7.75;2.85;;;20.90;99.90;;;;;;5179533;22;20057;-62
2022/07/29 10:18:38;;;;;;;4.00;3.00;;;20.80;99.90;;;;;;5013992;28;20083;-62
2022/07/29 10:21:03;;;;;;;10.60;3.35;;;20.80;99.90;;;;;;5027043;28;20067;-62
2022/07/29 10:23:30;;;;;;;5.68;2.70;;;20.70;99.90;;;;;;5051769;28;20456;-63
2022/07/29 10:25:59;;;;;;;7.57;2.95;;;20.90;99.90;;;;;;5034264;28;20102;-63
2022/07/29 10:28:25;;;;;;;6.20;3.08;;;21.00;99.90;;;;;;5048841;28;20041;-63
2022/07/29 10:30:58;;;;;;;7.45;3.13;;;21.00;99.90;;;;;;5005828;28;20057;-64
2022/07/29 10:33:37;;;;;;;5.32;2.67;;;21.10;99.90;;;;;;5042478;28;20098;-63
2022/07/29 10:36:40;;;;;;;4.80;2.97;;;21.20;99.90;;;;;;5024320;28;20045;-64
2022/07/29 10:39:46;;;;;;;5.70;2.78;;;21.20;99.90;;;;;;5017222;28;20111;-64
2022/07/29 10:42:15;;;;;;;6.40;3.13;;;21.00;99.90;;;;;;5027045;28;20099;-64
2022/07/29 10:44:42;;;;;;;4.75;2.85;;;21.10;99.90;;;;;;5042848;28;20056;-63
2022/07/29 10:47:19;;;;;;;5.15;3.22;;;21.20;99.90;;;;;;5034293;28;20041;-63
2022/07/29 10:50:00;;;;;;;5.93;3.05;;;21.10;99.90;;;;;;5051379;28;20045;-63
2022/07/29 10:52:56;;;;;;;8.00;3.22;;;21.10;99.90;;;;;;5047251;28;20511;-63
2022/07/29 10:55:39;;;;;;;5.80;2.70;;;21.00;99.90;;;;;;5052035;28;20499;-63
2022/07/29 10:58:22;;;;;;;6.27;2.80;;;21.00;99.90;;;;;;5032341;28;20044;-63
2022/07/29 11:00:57;;;;;;;7.88;3.20;;;21.20;99.90;;;;;;5041331;28;20049;-62
2022/07/29 11:03:42;;;;;;;6.07;3.03;;;21.40;99.90;;;;;;5023522;28;20119;-63
2022/07/29 11:06:08;;;;;;;6.82;2.70;;;21.40;99.90;;;;;;5033278;28;20137;-63
2022/07/29 11:08:34;;;;;;;4.97;3.40;;;21.40;99.90;;;;;;5032101;28;20123;-63
2022/07/29 11:11:23;;;;;;;4.90;2.83;;;21.50;99.90;;;;;;5037067;28;20501;-62
2022/07/29 11:13:54;;;;;;;5.22;3.13;;;21.60;99.90;;;;;;5015574;28;20064;-63
2022/07/29 11:16:22;;;;;;;6.78;3.20;;;21.70;99.90;;;;;;5013209;28;20263;-62
2022/07/29 11:19:12;;;;;;;8.10;2.83;;;21.60;99.90;;;;;;5026804;28;20056;-62
2022/07/29 11:21:41;;;;;;;6.70;2.85;;;21.60;99.90;;;;;;5015218;28;20056;-61
2022/07/29 11:24:14;;;;;;;8.68;3.25;;;21.90;99.90;;;;;;5048894;28;20041;-63
2022/07/29 11:26:41;;;;;;;6.75;3.13;;;22.10;99.90;;;;;;5051855;28;20051;-62
2022/07/29 11:29:19;;;;;;;4.70;2.42;;;22.30;99.90;;;;;;5033951;28;20037;-62
2022/07/29 11:31:49;;;;;;;5.05;2.90;;;22.50;99.90;;;;;;5033413;28;20125;-62
2022/07/29 11:34:25;;;;;;;7.07;2.72;;;22.70;99.90;;;;;;5009348;28;20368;-62
2022/07/29 11:37:12;;;;;;;5.82;2.60;;;23.00;99.90;;;;;;5051004;28;20433;-62
2022/07/29 11:40:04;;;;;;;6.18;2.90;;;23.20;99.90;;;;;;5051121;28;20037;-62
2022/07/29 11:42:37;;;;;;;7.53;2.67;;;23.50;99.60;;;;;;5029493;28;20078;-63
2022/07/29 11:45:13;;;;;;;6.80;2.55;;;23.60;99.20;;;;;;5055358;28;20036;-63
2022/07/29 11:47:47;;;;;;;6.00;2.42;;;23.80;98.80;;;;;;5054816;28;20129;-63
2022/07/29 11:50:38;;;;;;;3.95;2.50;;;24.00;98.80;;;;;;5048042;28;20112;-63
2022/07/29 11:53:12;;;;;;;5.43;2.53;;;23.90;98.90;;;;;;5021204;28;20075;-62
2022/07/29 11:55:40;;;;;;;9.30;2.90;;;23.90;98.90;;;;;;5054704;28;20527;-62
2022/07/29 11:58:06;;;;;;;10.13;2.72;;;24.00;98.40;;;;;;5054927;28;20045;-62
2022/07/29 12:00:45;;;;;;;6.20;2.72;;;24.00;98.50;;;;;;5051248;28;20055;-63
2022/07/29 12:03:13;;;;;;;6.80;2.72;;;24.10;97.70;;;;;;5054753;28;20041;-62
2022/07/29 12:05:44;;;;;;;7.15;3.03;;;24.20;97.40;;;;;;5034333;28;20037;-63
2022/07/29 12:08:21;;;;;;;14.23;3.10;;;24.10;97.80;;;;;;5034733;28;20128;-61
2022/07/29 12:10:51;;;;;;;8.05;2.67;;;24.10;97.50;;;;;;5016599;28;20110;-62
2022/07/29 12:13:20;;;;;;;5.93;2.53;;;24.10;98.10;;;;;;5025562;28;20044;-61
2022/07/29 12:15:58;;;;;;;5.10;3.22;;;24.10;97.30;;;;;;5034615;28;20338;-62
2022/07/29 12:18:24;;;;;;;5.78;2.63;;;24.00;97.20;;;;;;5007968;28;20056;-61
2022/07/29 12:21:03;;;;;;;6.30;2.50;;;23.90;97.70;;;;;;5034150;28;20130;-62
2022/07/29 12:23:32;;;;;;;6.93;2.40;;;24.00;97.90;;;;;;5033418;28;20060;-62
2022/07/29 12:25:58;;;;;;;7.30;2.72;;;24.10;98.00;;;;;;5054610;28;20472;-60
2022/07/29 12:28:24;;;;;;;7.72;3.10;;;24.20;97.80;;;;;;5044490;28;20053;-62
2022/07/29 12:30:51;;;;;;;4.57;2.60;;;24.20;97.90;;;;;;5027719;28;20034;-61
2022/07/29 12:33:21;;;;;;;5.95;2.95;;;24.20;98.10;;;;;;5051514;28;20025;-62
2022/07/29 12:35:53;;;;;;;7.00;2.90;;;24.30;98.30;;;;;;5027490;28;20038;-61
2022/07/29 12:38:19;;;;;;;5.65;3.00;;;24.50;97.80;;;;;;5045665;28;20033;-61
2022/07/29 12:40:50;;;;;;;8.50;2.80;;;24.50;97.90;;;;;;5023393;28;20113;-61
2022/07/29 12:43:23;;;;;;;7.63;2.65;;;24.40;98.00;;;;;;5049302;28;20457;-62
2022/07/29 12:45:51;;;;;;;3.20;2.40;;;24.40;98.00;;;;;;5015822;28;20488;-63
2022/07/29 12:48:31;;;;;;;4.32;2.70;;;24.50;98.00;;;;;;5031704;28;20040;-62
2022/07/29 12:51:01;;;;;;;5.13;2.67;;;24.40;98.10;;;;;;5014503;28;20037;-65
2022/07/29 12:53:27;;;;;;;6.03;2.90;;;24.40;98.20;;;;;;5032287;28;20025;-63
2022/07/29 12:55:59;;;;;;;6.60;2.90;;;24.40;98.10;;;;;;5033073;28;20099;-67
2022/07/29 12:58:39;;;;;;;7.50;2.70;;;24.50;98.00;;;;;;5032976;28;20073;-63
2022/07/29 13:01:14;;;;;;;7.07;2.75;;;24.60;97.90;;;;;;5031524;28;20053;-62
2022/07/29 13:03:56;;;;;;;5.32;2.45;;;24.50;98.00;;;;;;5003003;28;20057;-63
2022/07/29 13:06:33;;;;;;;6.25;2.30;;;24.60;98.00;;;;;;5033720;28;20033;-62
2022/07/29 13:09:04;;;;;;;5.63;2.35;;;24.60;97.40;;;;;;5015413;28;20076;-62
2022/07/29 13:11:53;;;;;;;6.75;2.78;;;24.60;97.50;;;;;;5031475;28;20037;-61
2022/07/29 13:14:32;;;;;;;8.18;2.70;;;24.60;97.30;;;;;;5008152;28;20112;-61
2022/07/29 13:17:11;;;;;;;7.05;2.90;;;24.50;97.70;;;;;;5033746;28;20045;-62
2022/07/29 13:20:09;;;;;;;4.70;2.50;;;24.40;98.00;;;;;;5007051;28;20207;-63
2022/07/29 13:22:35;;;;;;;5.45;2.70;;;24.40;97.60;;;;;;5029783;28;20133;-62
2022/07/29 13:25:31;;;;;;;6.00;2.38;;;24.40;97.70;;;;;;4996731;28;20092;-61